createdAt,value
2022-10-02T00:00:34.558Z,98555.78
2022-10-02T00:03:10.510Z,98569.09
2022-10-02T00:05:43.307Z,98562.06
2022-10-02T00:08:34.548Z,98561.13
2022-10-02T00:11:09.371Z,98568.06
2022-10-02T00:13:48.401Z,98560.81
2022-10-02T00:16:30.497Z,98581.13
2022-10-02T00:18:57.706Z,98580.53
2022-10-02T00:21:46.070Z,98584.47
2022-10-02T00:24:17.974Z,98576.72
2022-10-02T00:26:57.123Z,98576.00
2022-10-02T00:29:32.471Z,98579.47
2022-10-02T00:32:11.473Z,98584.97
2022-10-02T00:35:08.709Z,98596.75
2022-10-02T00:37:51.522Z,98598.47
2022-10-02T00:40:45.675Z,98608.16
2022-10-02T00:43:32.146Z,98603.22
2022-10-02T00:46:14.233Z,98611.09
2022-10-02T00:49:11.408Z,98618.91
2022-10-02T00:52:05.485Z,98613.72
2022-10-02T00:54:59.838Z,98628.25
2022-10-02T00:57:40.579Z,98629.06
2022-10-02T01:00:14.696Z,98619.56
2022-10-02T01:03:00.568Z,98616.53
2022-10-02T01:05:27.690Z,98612.13
2022-10-02T01:07:56.044Z,98628.56
2022-10-02T01:10:25.592Z,98626.22
2022-10-02T01:12:54.595Z,98622.97
2022-10-02T01:15:23.659Z,98633.81
2022-10-02T01:17:52.084Z,98629.00
2022-10-02T01:20:32.836Z,98625.53
2022-10-02T01:23:29.989Z,98628.78
2022-10-02T01:25:58.380Z,98626.34
2022-10-02T01:28:26.365Z,98620.38
2022-10-02T01:30:57.515Z,98631.22
2022-10-02T01:33:24.291Z,98628.78
2022-10-02T01:35:51.314Z,98635.66
2022-10-02T01:38:23.196Z,98641.41
2022-10-02T01:40:49.799Z,98637.59
2022-10-02T01:43:18.941Z,98647.34
2022-10-02T01:46:02.697Z,98649.34
2022-10-02T01:48:44.518Z,98651.53
2022-10-02T01:51:26.533Z,98650.06
2022-10-02T01:54:16.442Z,98655.41
2022-10-02T01:57:04.338Z,98664.41
2022-10-02T01:59:51.877Z,98657.41
2022-10-02T02:02:34.807Z,98659.41
2022-10-02T02:05:12.724Z,98655.91
2022-10-02T02:07:55.660Z,98654.97
2022-10-02T02:10:24.081Z,98658.72
2022-10-02T02:12:57.761Z,98668.75
2022-10-02T02:15:48.477Z,98664.84
2022-10-02T02:18:35.216Z,98681.75
2022-10-02T02:21:09.007Z,98681.91
2022-10-02T02:23:38.385Z,98680.06
2022-10-02T02:26:09.802Z,98684.97
2022-10-02T02:28:40.455Z,98675.66
2022-10-02T02:31:10.104Z,98685.03
2022-10-02T02:33:45.712Z,98685.88
2022-10-02T02:36:18.130Z,98691.31
2022-10-02T02:38:50.752Z,98684.47
2022-10-02T02:41:24.811Z,98698.28
2022-10-02T02:44:10.370Z,98699.53
2022-10-02T02:46:58.906Z,98706.91
2022-10-02T02:49:29.819Z,98702.63
2022-10-02T02:52:00.924Z,98710.34
2022-10-02T02:54:36.548Z,98699.78
2022-10-02T02:57:06.250Z,98698.22
2022-10-02T02:59:35.885Z,98698.66
2022-10-02T03:02:02.613Z,98697.56
2022-10-02T03:04:29.307Z,98701.88
2022-10-02T03:07:01.656Z,98705.47
2022-10-02T03:09:40.986Z,98710.63
2022-10-02T03:12:24.355Z,98711.22
2022-10-02T03:15:21.508Z,98719.31
2022-10-02T03:18:18.441Z,98715.34
2022-10-02T03:21:03.719Z,98714.88
2022-10-02T03:23:46.062Z,98716.34
2022-10-02T03:26:19.704Z,98723.47
2022-10-02T03:28:56.756Z,98721.19
2022-10-02T03:31:27.449Z,98722.22
2022-10-02T03:33:55.008Z,98726.50
2022-10-02T03:36:22.508Z,98722.44
2022-10-02T03:39:06.266Z,98729.84
2022-10-02T03:41:36.911Z,98720.13
2022-10-02T03:44:03.756Z,98713.41
2022-10-02T03:46:30.793Z,98704.06
2022-10-02T03:48:57.595Z,98713.25
2022-10-02T03:51:24.489Z,98714.28
2022-10-02T03:53:52.359Z,98717.31
2022-10-02T03:56:28.954Z,98717.53
2022-10-02T03:59:01.291Z,98720.41
2022-10-02T04:01:35.543Z,98723.84
2022-10-02T04:04:17.619Z,98718.88
2022-10-02T04:06:48.662Z,98725.41
2022-10-02T04:09:25.515Z,98718.72
2022-10-02T04:11:57.487Z,98716.88
2022-10-02T04:14:33.168Z,98717.53
2022-10-02T04:17:04.281Z,98718.28
2022-10-02T04:19:40.341Z,98714.44
2022-10-02T04:22:14.060Z,98707.31
2022-10-02T04:24:49.026Z,98707.66
2022-10-02T04:27:23.073Z,98708.13
2022-10-02T04:29:55.982Z,98694.25
2022-10-02T04:32:33.489Z,98692.88
2022-10-02T04:35:00.524Z,98680.44
2022-10-02T04:37:37.222Z,98687.13
2022-10-02T04:40:21.771Z,98698.38
2022-10-02T04:43:13.785Z,98694.47
2022-10-02T04:45:55.845Z,98705.03
2022-10-02T04:48:42.372Z,98703.47
2022-10-02T04:51:25.264Z,98695.72
2022-10-02T04:54:07.247Z,98706.94
2022-10-02T04:56:50.065Z,98702.66
2022-10-02T04:59:56.274Z,98706.94
2022-10-02T05:02:37.345Z,98708.97
2022-10-02T05:05:03.919Z,98709.59
2022-10-02T05:08:00.887Z,98704.72
2022-10-02T05:10:29.520Z,98708.78
2022-10-02T05:13:16.739Z,98704.28
2022-10-02T05:15:44.383Z,98706.72
2022-10-02T05:18:18.363Z,98702.66
2022-10-02T05:21:20.219Z,98717.47
2022-10-02T05:23:56.593Z,98720.75
2022-10-02T05:26:31.611Z,98707.97
2022-10-02T05:29:11.968Z,98697.97
2022-10-02T05:31:58.457Z,98705.47
2022-10-02T05:34:38.198Z,98700.78
2022-10-02T05:37:21.018Z,98692.00
2022-10-02T05:40:14.821Z,98700.97
2022-10-02T05:42:59.023Z,98712.38
2022-10-02T05:45:31.207Z,98722.78
2022-10-02T05:48:07.666Z,98723.38
2022-10-02T05:50:37.920Z,98718.66
2022-10-02T05:53:33.801Z,98718.44
2022-10-02T05:56:10.351Z,98718.66
2022-10-02T05:58:48.062Z,98719.59
2022-10-02T06:01:25.943Z,98722.88
2022-10-02T06:04:02.629Z,98709.59
2022-10-02T06:06:41.728Z,98711.00
2022-10-02T06:09:19.801Z,98713.66
2022-10-02T06:11:59.430Z,98715.28
2022-10-02T06:14:37.178Z,98711.97
2022-10-02T06:17:15.115Z,98707.50
2022-10-02T06:19:52.330Z,98722.72
2022-10-02T06:22:23.230Z,98729.66
2022-10-02T06:24:57.328Z,98725.97
2022-10-02T06:27:44.076Z,98737.78
2022-10-02T06:30:15.550Z,98714.88
2022-10-02T06:32:50.497Z,98721.81
2022-10-02T06:35:29.060Z,98727.91
2022-10-02T06:37:56.705Z,98737.50
2022-10-02T06:40:37.320Z,98737.03
2022-10-02T06:43:19.241Z,98738.44
2022-10-02T06:46:08.411Z,98732.03
2022-10-02T06:48:49.237Z,98725.72
2022-10-02T06:51:36.985Z,98730.09
2022-10-02T06:54:03.582Z,98736.97
2022-10-02T06:56:45.393Z,98732.38
2022-10-02T06:59:34.838Z,98742.59
2022-10-02T07:02:02.492Z,98741.41
2022-10-02T07:04:42.351Z,98736.84
2022-10-02T07:07:33.542Z,98737.91
2022-10-02T07:10:07.222Z,98728.00
2022-10-02T07:13:04.323Z,98728.47
2022-10-02T07:16:08.108Z,98728.56
2022-10-02T07:19:00.683Z,98740.81
2022-10-02T07:21:48.258Z,98729.84
2022-10-02T07:24:25.801Z,98726.97
2022-10-02T07:27:03.044Z,98734.09
2022-10-02T07:29:43.146Z,98730.31
2022-10-02T07:32:13.123Z,98724.66
2022-10-02T07:35:03.707Z,98732.66
2022-10-02T07:37:45.577Z,98729.56
2022-10-02T07:40:35.416Z,98724.47
2022-10-02T07:43:32.613Z,98729.59
2022-10-02T07:46:34.445Z,98724.16
2022-10-02T07:49:25.959Z,98715.38
2022-10-02T07:52:00.728Z,98714.09
2022-10-02T07:54:54.142Z,98723.56
2022-10-02T07:57:49.564Z,98725.88
2022-10-02T08:00:18.845Z,98726.09
2022-10-02T08:03:00.896Z,98721.94
2022-10-02T08:05:33.740Z,98716.19
2022-10-02T08:08:09.960Z,98720.72
2022-10-02T08:10:41.483Z,98732.75
2022-10-02T08:13:20.642Z,98742.22
2022-10-02T08:15:55.445Z,98735.75
2022-10-02T08:18:34.777Z,98738.97
2022-10-02T08:21:04.695Z,98734.84
2022-10-02T08:23:53.486Z,98730.88
2022-10-02T08:26:30.687Z,98731.00
2022-10-02T08:29:05.871Z,98729.16
2022-10-02T08:31:33.150Z,98734.25
2022-10-02T08:34:14.069Z,98732.63
2022-10-02T08:37:10.798Z,98742.47
2022-10-02T08:39:58.358Z,98737.47
2022-10-02T08:42:37.419Z,98741.88
2022-10-02T08:45:05.075Z,98744.88
2022-10-02T08:47:33.088Z,98747.53
2022-10-02T08:50:11.720Z,98741.38
2022-10-02T08:52:46.404Z,98747.84
2022-10-02T08:55:28.408Z,98749.47
2022-10-02T08:58:11.108Z,98751.22
2022-10-02T09:01:07.242Z,98741.72
2022-10-02T09:04:00.937Z,98742.34
2022-10-02T09:06:55.707Z,98748.81
2022-10-02T09:09:43.239Z,98731.81
2022-10-02T09:12:26.197Z,98738.38
2022-10-02T09:15:10.294Z,98735.13
2022-10-02T09:18:08.673Z,98735.47
2022-10-02T09:21:11.326Z,98729.56
2022-10-02T09:23:55.200Z,98712.44
2022-10-02T09:26:27.029Z,98715.94
2022-10-02T09:29:07.395Z,98718.50
2022-10-02T09:31:35.142Z,98719.88
2022-10-02T09:34:02.827Z,98719.66
2022-10-02T09:36:45.979Z,98717.75
2022-10-02T09:39:31.094Z,98718.56
2022-10-02T09:42:08.921Z,98714.19
2022-10-02T09:45:01.500Z,98723.06
2022-10-02T09:47:53.376Z,98730.81
2022-10-02T09:50:34.997Z,98721.31
2022-10-02T09:53:03.623Z,98710.66
2022-10-02T09:56:00.666Z,98711.13
2022-10-02T09:58:37.076Z,98718.09
2022-10-02T10:01:04.031Z,98711.03
2022-10-02T10:04:09.083Z,98704.28
2022-10-02T10:06:36.333Z,98694.13
2022-10-02T10:09:24.013Z,98695.66
2022-10-02T10:12:21.144Z,98703.19
2022-10-02T10:15:20.015Z,98701.09
2022-10-02T10:18:26.625Z,98699.25
2022-10-02T10:21:25.727Z,98705.59
2022-10-02T10:24:13.844Z,98702.16
2022-10-02T10:27:13.376Z,98700.66
2022-10-02T10:29:55.379Z,98699.94
2022-10-02T10:32:49.905Z,98695.44
2022-10-02T10:35:31.737Z,98694.41
2022-10-02T10:38:33.396Z,98699.94
2022-10-02T10:41:16.406Z,98695.69
2022-10-02T10:44:12.225Z,98689.50
2022-10-02T10:47:02.795Z,98697.38
2022-10-02T10:50:04.149Z,98685.84
2022-10-02T10:52:45.975Z,98685.22
2022-10-02T10:55:19.469Z,98689.88
2022-10-02T10:58:05.941Z,98676.47
2022-10-02T11:00:41.831Z,98677.16
2022-10-02T11:03:34.666Z,98685.56
2022-10-02T11:06:26.634Z,98667.78
2022-10-02T11:09:13.152Z,98664.94
2022-10-02T11:11:40.931Z,98664.22
2022-10-02T11:14:26.772Z,98677.50
2022-10-02T11:17:28.552Z,98675.69
2022-10-02T11:20:24.136Z,98667.94
2022-10-02T11:23:01.878Z,98659.47
2022-10-02T11:25:56.206Z,98661.31
2022-10-02T11:28:42.735Z,98644.69
2022-10-02T11:31:34.634Z,98642.81
2022-10-02T11:34:12.894Z,98645.06
2022-10-02T11:36:54.150Z,98637.09
2022-10-02T11:39:48.009Z,98632.22
2022-10-02T11:42:40.169Z,98611.50
2022-10-02T11:45:19.008Z,98605.50
2022-10-02T11:48:02.044Z,98624.53
2022-10-02T11:50:44.111Z,98613.84
2022-10-02T11:53:32.193Z,98619.06
2022-10-02T11:56:14.376Z,98624.84
2022-10-02T11:59:18.648Z,98610.50
2022-10-02T12:02:06.067Z,98618.78
2022-10-02T12:04:48.108Z,98611.19
2022-10-02T12:07:29.779Z,98612.72
2022-10-02T12:10:22.738Z,98604.63
2022-10-02T12:13:20.027Z,98597.78
2022-10-02T12:15:58.372Z,98605.66
2022-10-02T12:18:55.636Z,98613.91
2022-10-02T12:21:37.553Z,98592.38
2022-10-02T12:24:34.275Z,98591.34
2022-10-02T12:27:23.800Z,98594.00
2022-10-02T12:30:07.135Z,98594.78
2022-10-02T12:32:42.093Z,98595.16
2022-10-02T12:35:43.802Z,98584.53
2022-10-02T12:38:32.675Z,98563.25
2022-10-02T12:41:34.412Z,98578.91
2022-10-02T12:44:32.837Z,98577.59
2022-10-02T12:47:09.877Z,98565.47
2022-10-02T12:49:50.720Z,98550.53
2022-10-02T12:52:48.881Z,98544.63
2022-10-02T12:55:45.914Z,98539.78
2022-10-02T12:58:29.437Z,98550.44
2022-10-02T13:01:30.698Z,98558.91
2022-10-02T13:04:28.102Z,98551.97
2022-10-02T13:07:08.154Z,98547.69
2022-10-02T13:09:49.972Z,98536.47
2022-10-02T13:12:40.258Z,98532.38
2022-10-02T13:15:23.304Z,98542.47
2022-10-02T13:18:20.424Z,98545.34
2022-10-02T13:21:04.275Z,98551.72
2022-10-02T13:24:01.056Z,98529.66
2022-10-02T13:26:34.607Z,98515.75
2022-10-02T13:29:31.651Z,98513.50
2022-10-02T13:32:13.728Z,98515.81
2022-10-02T13:35:05.216Z,98517.66
2022-10-02T13:37:47.337Z,98514.78
2022-10-02T13:40:24.342Z,98519.50
2022-10-02T13:43:21.242Z,98508.16
2022-10-02T13:45:56.064Z,98499.31
2022-10-02T13:48:37.991Z,98503.41
2022-10-02T13:51:09.151Z,98509.22
2022-10-02T13:53:50.988Z,98520.03
2022-10-02T13:56:37.558Z,98520.97
2022-10-02T13:59:21.001Z,98523.16
2022-10-02T14:02:15.374Z,98525.16
2022-10-02T14:04:57.367Z,98546.19
2022-10-02T14:07:39.137Z,98550.69
2022-10-02T14:10:30.606Z,98548.56
2022-10-02T14:13:12.617Z,98543.94
2022-10-02T14:15:56.825Z,98529.41
2022-10-02T14:18:35.384Z,98527.59
2022-10-02T14:21:20.519Z,98528.47
2022-10-02T14:24:06.501Z,98515.19
2022-10-02T14:27:00.890Z,98511.06
2022-10-02T14:29:48.504Z,98480.59
2022-10-02T14:32:38.313Z,98477.94
2022-10-02T14:35:20.486Z,98475.13
2022-10-02T14:38:06.071Z,98465.13
2022-10-02T14:41:01.353Z,98464.59
2022-10-02T14:43:56.691Z,98446.47
2022-10-02T14:46:38.459Z,98444.31
2022-10-02T14:49:07.108Z,98460.25
2022-10-02T14:51:54.775Z,98475.91
2022-10-02T14:54:48.128Z,98510.19
2022-10-02T14:57:41.453Z,98510.03
2022-10-02T15:00:25.480Z,98507.63
2022-10-02T15:03:19.150Z,98507.06
2022-10-02T15:06:23.369Z,98492.72
2022-10-02T15:09:13.509Z,98499.41
2022-10-02T15:11:52.353Z,98497.47
2022-10-02T15:14:38.525Z,98490.88
2022-10-02T15:17:29.384Z,98486.59
2022-10-02T15:20:06.010Z,98487.44
2022-10-02T15:22:44.041Z,98469.91
2022-10-02T15:25:27.108Z,98479.16
2022-10-02T15:28:35.277Z,98485.03
2022-10-02T15:31:23.056Z,98486.81
2022-10-02T15:34:14.758Z,98483.19
2022-10-02T15:36:57.668Z,98491.81
2022-10-02T15:39:45.152Z,98474.41
2022-10-02T15:42:25.896Z,98462.81
2022-10-02T15:45:17.319Z,98455.22
2022-10-02T15:48:05.524Z,98456.25
2022-10-02T15:50:33.234Z,98465.03
2022-10-02T15:53:24.038Z,98463.41
2022-10-02T15:56:21.241Z,98453.59
2022-10-02T15:59:27.672Z,98460.69
2022-10-02T16:02:24.981Z,98489.47
2022-10-02T16:04:51.490Z,98491.69
2022-10-02T16:07:37.978Z,98507.50
2022-10-02T16:10:35.336Z,98510.88
2022-10-02T16:13:17.227Z,98524.06
2022-10-02T16:16:00.486Z,98521.91
2022-10-02T16:18:54.646Z,98512.84
2022-10-02T16:21:49.353Z,98515.75
2022-10-02T16:24:24.703Z,98528.59
2022-10-02T16:27:13.137Z,98526.88
2022-10-02T16:29:47.942Z,98551.84
2022-10-02T16:32:52.336Z,98552.91
2022-10-02T16:35:42.800Z,98540.78
2022-10-02T16:38:22.918Z,98517.75
2022-10-02T16:40:49.492Z,98533.59
2022-10-02T16:43:31.944Z,98540.06
2022-10-02T16:46:08.248Z,98544.59
2022-10-02T16:48:35.090Z,98542.38
2022-10-02T16:51:08.915Z,98555.09
2022-10-02T16:53:44.637Z,98551.16
2022-10-02T16:56:32.487Z,98555.00
2022-10-02T16:59:09.432Z,98549.78
2022-10-02T17:02:12.824Z,98543.19
2022-10-02T17:04:45.015Z,98559.94
2022-10-02T17:07:33.268Z,98559.50
2022-10-02T17:10:19.779Z,98568.41
2022-10-02T17:12:56.151Z,98575.09
2022-10-02T17:15:32.313Z,98584.34
2022-10-02T17:18:13.338Z,98577.75
2022-10-02T17:20:46.920Z,98572.09
2022-10-02T17:23:24.949Z,98578.69
2022-10-02T17:26:03.066Z,98569.91
2022-10-02T17:28:39.185Z,98562.75
2022-10-02T17:31:22.214Z,98576.84
2022-10-02T17:33:54.956Z,98588.03
2022-10-02T17:36:43.313Z,98585.38
2022-10-02T17:39:27.965Z,98596.00
2022-10-02T17:42:32.560Z,98600.66
2022-10-02T17:45:34.552Z,98595.56
2022-10-02T17:48:26.737Z,98600.28
2022-10-02T17:51:38.673Z,98608.94
2022-10-02T17:54:43.581Z,98610.81
2022-10-02T17:57:40.755Z,98619.38
2022-10-02T18:00:10.275Z,98620.28
2022-10-02T18:02:46.240Z,98622.03
2022-10-02T18:05:43.347Z,98625.25
2022-10-02T18:08:28.522Z,98633.56
2022-10-02T18:10:58.020Z,98635.75
2022-10-02T18:13:31.214Z,98622.13
2022-10-02T18:16:28.760Z,98619.13
2022-10-02T18:19:16.439Z,98623.72
2022-10-02T18:21:42.984Z,98618.41
2022-10-02T18:24:31.976Z,98623.63
2022-10-02T18:27:24.791Z,98625.47
2022-10-02T18:30:04.511Z,98630.78
2022-10-02T18:32:58.497Z,98635.31
2022-10-02T18:35:28.474Z,98628.59
2022-10-02T18:38:16.829Z,98632.97
2022-10-02T18:41:13.980Z,98631.81
2022-10-02T18:44:06.069Z,98637.72
2022-10-02T18:46:53.540Z,98639.56
2022-10-02T18:49:41.657Z,98642.91
2022-10-02T18:52:16.718Z,98647.31
2022-10-02T18:55:07.283Z,98652.94
2022-10-02T18:57:34.893Z,98650.41
2022-10-02T19:00:17.054Z,98647.50
2022-10-02T19:02:59.988Z,98641.63
2022-10-02T19:05:49.164Z,98644.53
2022-10-02T19:08:26.285Z,98652.25
2022-10-02T19:10:53.172Z,98650.84
2022-10-02T19:13:29.336Z,98664.94
2022-10-02T19:16:00.111Z,98657.44
2022-10-02T19:18:29.708Z,98659.06
2022-10-02T19:21:14.507Z,98661.72
2022-10-02T19:23:59.927Z,98673.50
2022-10-02T19:26:33.214Z,98681.91
2022-10-02T19:29:04.331Z,98688.25
2022-10-02T19:31:36.402Z,98683.19
2022-10-02T19:34:11.412Z,98686.63
2022-10-02T19:36:43.191Z,98677.41
2022-10-02T19:39:27.880Z,98684.72
2022-10-02T19:41:57.724Z,98688.63
2022-10-02T19:44:29.650Z,98694.13
2022-10-02T19:46:59.230Z,98694.13
2022-10-02T19:49:34.080Z,98694.13
2022-10-02T19:52:01.000Z,98694.13
2022-10-02T19:54:35.497Z,98680.53
2022-10-02T19:57:11.688Z,98687.44
2022-10-02T19:59:44.179Z,98684.09
2022-10-02T20:02:21.345Z,98690.81
2022-10-02T20:04:51.076Z,98698.78
2022-10-02T20:07:20.440Z,98695.66
2022-10-02T20:09:53.835Z,98695.31
2022-10-02T20:12:26.987Z,98690.00
2022-10-02T20:15:12.603Z,98697.16
2022-10-02T20:17:39.444Z,98703.50
2022-10-02T20:20:12.926Z,98695.91
2022-10-02T20:22:53.248Z,98695.56
2022-10-02T20:25:30.258Z,98700.06
2022-10-02T20:28:03.600Z,98700.97
2022-10-02T20:30:38.047Z,98691.88
2022-10-02T20:33:15.579Z,98708.59
2022-10-02T20:35:48.948Z,98700.44
2022-10-02T20:38:24.147Z,98699.16
2022-10-02T20:40:54.611Z,98697.44
2022-10-02T20:43:26.040Z,98700.31
2022-10-02T20:46:20.242Z,98697.56
2022-10-02T20:49:17.746Z,98706.19
2022-10-02T20:52:11.924Z,98709.16
2022-10-02T20:54:39.505Z,98717.72
2022-10-02T20:57:20.306Z,98718.16
2022-10-02T21:00:08.059Z,98699.56
2022-10-02T21:02:51.586Z,98705.88
2022-10-02T21:05:37.620Z,98706.78
2022-10-02T21:08:06.741Z,98709.53
2022-10-02T21:10:49.756Z,98713.00
2022-10-02T21:13:50.628Z,98713.59
2022-10-02T21:16:49.771Z,98717.97
2022-10-02T21:19:52.162Z,98725.03
2022-10-02T21:22:32.303Z,98732.63
2022-10-02T21:25:28.601Z,98723.78
2022-10-02T21:28:25.691Z,98731.84
2022-10-02T21:30:52.395Z,98742.25
2022-10-02T21:33:32.527Z,98740.41
2022-10-02T21:36:25.039Z,98734.41
2022-10-02T21:39:30.820Z,98727.94
2022-10-02T21:42:47.055Z,98720.53
2022-10-02T21:45:44.266Z,98719.38
2022-10-02T21:48:30.902Z,98720.97
2022-10-02T21:51:31.190Z,98737.75
2022-10-02T21:54:30.353Z,98737.03
2022-10-02T21:57:16.879Z,98742.00
2022-10-02T21:59:43.573Z,98745.25
2022-10-02T22:02:13.036Z,98741.31
2022-10-02T22:04:55.202Z,98738.66
2022-10-02T22:07:29.793Z,98744.78
2022-10-02T22:10:21.451Z,98747.69
2022-10-02T22:12:58.477Z,98752.72
2022-10-02T22:15:40.251Z,98754.44
2022-10-02T22:18:19.645Z,98757.88
2022-10-02T22:21:12.477Z,98763.06
2022-10-02T22:23:52.925Z,98770.56
2022-10-02T22:26:42.689Z,98778.19
2022-10-02T22:29:24.647Z,98775.00
2022-10-02T22:32:19.819Z,98779.34
2022-10-02T22:35:07.128Z,98784.94
2022-10-02T22:37:50.326Z,98782.59
2022-10-02T22:40:23.329Z,98779.72
2022-10-02T22:43:00.341Z,98774.41
2022-10-02T22:45:42.116Z,98774.31
2022-10-02T22:48:23.992Z,98780.41
2022-10-02T22:50:56.763Z,98784.94
2022-10-02T22:53:38.731Z,98779.84
2022-10-02T22:56:19.943Z,98781.09
2022-10-02T22:58:57.954Z,98783.31
2022-10-02T23:01:34.009Z,98785.16
2022-10-02T23:04:16.844Z,98787.63
2022-10-02T23:06:50.150Z,98784.69
2022-10-02T23:09:27.940Z,98791.50
2022-10-02T23:12:25.426Z,98792.63
2022-10-02T23:15:22.862Z,98799.00
2022-10-02T23:18:02.632Z,98800.34
2022-10-02T23:20:38.250Z,98803.47
2022-10-02T23:23:28.299Z,98804.97
2022-10-02T23:26:08.949Z,98805.31
2022-10-02T23:28:42.344Z,98816.38
2022-10-02T23:31:30.264Z,98815.34
2022-10-02T23:34:24.079Z,98809.81
2022-10-02T23:37:15.287Z,98808.88
2022-10-02T23:40:04.225Z,98811.91
2022-10-02T23:42:37.596Z,98814.78
2022-10-02T23:45:17.288Z,98806.69
2022-10-02T23:47:58.290Z,98809.44
2022-10-02T23:50:50.297Z,98811.72
2022-10-02T23:53:37.470Z,98811.75
2022-10-02T23:56:29.339Z,98816.34
2022-10-02T23:59:26.604Z,98819.13
